Time;durP1;ratioP1;P1;durP2;ratioP2;P2;SDS_P1;SDS_P2;PMS_P1;PMS_P2;Temp;Humidity;BMP_temperature;BMP_pressure;BME280_temperature;BME280_humidity;BME280_pressure;Samples;Min_cycle;Max_cycle;Signal;HPM_P1;HPM_P2
2023/09/03 00:00:22;;;;;;;4.45;3.33;;;;;;;;;;4903136;29;20508;-64
2023/09/03 00:02:48;;;;;;;6.55;3.80;;;;;;;;;;4904851;29;20025;-64
2023/09/03 00:05:14;;;;;;;5.65;3.33;;;;;;;;;;4886237;29;20032;-64
2023/09/03 00:07:40;;;;;;;5.75;3.50;;;;;;;;;;4902877;29;20073;-64
2023/09/03 00:10:07;;;;;;;6.03;3.30;;;;;;;;;;4902546;29;20035;-64
2023/09/03 00:12:33;;;;;;;7.18;4.00;;;;;;;;;;4902804;29;20052;-64
2023/09/03 00:14:59;;;;;;;5.18;3.75;;;;;;;;;;4902980;29;20039;-64
2023/09/03 00:17:26;;;;;;;5.63;3.45;;;;;;;;;;4902744;29;20025;-64
2023/09/03 00:19:52;;;;;;;5.65;3.22;;;;;;;;;;4902765;29;20032;-64
2023/09/03 00:22:18;;;;;;;5.82;4.03;;;;;;;;;;4902592;29;20375;-64
2023/09/03 00:24:44;;;;;;;7.72;3.55;;;;;;;;;;4902237;29;20029;-64
2023/09/03 00:27:10;;;;;;;6.43;3.95;;;;;;;;;;4902726;29;20043;-64
2023/09/03 00:29:36;;;;;;;7.03;3.70;;;;;;;;;;4902826;29;20032;-64
2023/09/03 00:32:02;;;;;;;7.70;4.65;;;;;;;;;;4902011;29;20056;-64
2023/09/03 00:34:28;;;;;;;7.22;3.70;;;;;;;;;;4902647;29;20040;-64
2023/09/03 00:36:54;;;;;;;7.55;3.90;;;;;;;;;;4902500;29;20025;-64
2023/09/03 00:39:20;;;;;;;5.60;3.72;;;;;;;;;;4902061;29;20155;-64
2023/09/03 00:41:46;;;;;;;6.45;3.42;;;;;;;;;;4903796;29;20036;-64
2023/09/03 00:44:14;;;;;;;7.50;4.30;;;;;;;;;;4902459;29;20812;-64
2023/09/03 00:46:41;;;;;;;6.20;3.60;;;;;;;;;;4902287;29;20055;-64
2023/09/03 00:49:07;;;;;;;6.15;3.72;;;;;;;;;;4903647;29;20067;-64
2023/09/03 00:51:36;;;;;;;5.03;3.38;;;;;;;;;;4902314;29;20037;-64
2023/09/03 00:54:02;;;;;;;5.95;3.03;;;;;;;;;;4885291;29;20038;-64
2023/09/03 00:56:28;;;;;;;5.00;3.50;;;;;;;;;;4902093;29;20028;-64
2023/09/03 00:58:55;;;;;;;4.53;3.17;;;;;;;;;;4902286;29;20040;-64
2023/09/03 01:01:22;;;;;;;5.95;3.03;;;;;;;;;;4885292;29;20081;-64
2023/09/03 01:03:48;;;;;;;6.70;3.33;;;;;;;;;;4902294;29;20471;-64
2023/09/03 01:06:15;;;;;;;6.30;3.30;;;;;;;;;;4902134;29;20072;-64
2023/09/03 01:08:41;;;;;;;7.15;4.15;;;;;;;;;;4901965;29;20025;-64
2023/09/03 01:11:17;;;;;;;6.63;3.80;;;;;;;;;;4901976;29;20045;-64
2023/09/03 01:13:52;;;;;;;6.93;3.70;;;;;;;;;;4885268;29;20061;-64
2023/09/03 01:16:25;;;;;;;7.80;3.85;;;;;;;;;;4902076;29;20028;-64
2023/09/03 01:18:52;;;;;;;6.35;4.03;;;;;;;;;;4901874;29;20061;-64
2023/09/03 01:21:37;;;;;;;5.63;3.58;;;;;;;;;;4902073;29;20127;-64
2023/09/03 01:24:03;;;;;;;6.93;3.83;;;;;;;;;;4901833;29;20088;-64
2023/09/03 01:26:31;;;;;;;6.35;3.50;;;;;;;;;;4901883;29;20024;-64
2023/09/03 01:28:57;;;;;;;8.38;4.50;;;;;;;;;;4885208;29;20032;-64
2023/09/03 01:31:24;;;;;;;7.60;4.45;;;;;;;;;;4885008;29;20093;-64
2023/09/03 01:34:01;;;;;;;7.22;4.60;;;;;;;;;;4901884;29;20041;-64
2023/09/03 01:36:27;;;;;;;6.65;4.68;;;;;;;;;;4884981;29;20074;-64
2023/09/03 01:38:53;;;;;;;9.57;5.45;;;;;;;;;;4901713;29;20029;-64
2023/09/03 01:41:19;;;;;;;12.57;5.80;;;;;;;;;;4903423;29;20037;-64
2023/09/03 01:43:45;;;;;;;9.02;5.32;;;;;;;;;;4905232;29;20827;-64
2023/09/03 01:46:20;;;;;;;10.35;5.05;;;;;;;;;;4907912;29;20073;-64
2023/09/03 01:48:51;;;;;;;9.43;5.10;;;;;;;;;;4907195;29;20036;-64
2023/09/03 01:51:36;;;;;;;14.55;7.60;;;;;;;;;;4905255;29;20029;-64
2023/09/03 01:54:11;;;;;;;11.75;6.45;;;;;;;;;;4905209;29;20409;-64
2023/09/03 01:56:39;;;;;;;11.55;6.47;;;;;;;;;;4888228;29;20498;-64
2023/09/03 01:59:10;;;;;;;12.70;7.05;;;;;;;;;;4888435;29;20517;-64
2023/09/03 02:01:36;;;;;;;10.00;6.40;;;;;;;;;;4905269;29;20501;-64
2023/09/03 02:04:02;;;;;;;10.00;6.15;;;;;;;;;;4905090;29;20443;-64
2023/09/03 02:06:28;;;;;;;9.30;6.10;;;;;;;;;;4905321;29;20029;-64
2023/09/03 02:08:54;;;;;;;10.13;6.70;;;;;;;;;;4904845;29;20028;-64
2023/09/03 02:11:20;;;;;;;9.70;6.47;;;;;;;;;;4904848;29;20060;-64
2023/09/03 02:13:46;;;;;;;7.53;5.63;;;;;;;;;;4905025;29;20067;-64
2023/09/03 02:16:12;;;;;;;9.52;5.53;;;;;;;;;;4888054;29;20033;-64
2023/09/03 02:18:38;;;;;;;9.63;5.72;;;;;;;;;;4904799;29;20033;-64
2023/09/03 02:21:04;;;;;;;10.80;6.45;;;;;;;;;;4904990;29;20088;-64
2023/09/03 02:23:30;;;;;;;9.73;5.85;;;;;;;;;;4904546;29;20029;-64
2023/09/03 02:26:00;;;;;;;10.95;6.78;;;;;;;;;;4904701;29;20447;-64
2023/09/03 02:28:26;;;;;;;11.45;6.30;;;;;;;;;;4887797;29;20115;-64
2023/09/03 02:30:52;;;;;;;11.45;6.65;;;;;;;;;;4887835;29;20052;-64
2023/09/03 02:33:19;;;;;;;9.75;6.30;;;;;;;;;;4904533;29;20115;-64
2023/09/03 02:35:45;;;;;;;9.77;6.10;;;;;;;;;;4887802;29;20025;-64
2023/09/03 02:38:11;;;;;;;8.77;5.53;;;;;;;;;;4904282;29;20509;-64
2023/09/03 02:40:37;;;;;;;9.13;5.25;;;;;;;;;;4888761;29;20677;-64
2023/09/03 02:43:04;;;;;;;8.65;5.60;;;;;;;;;;4904461;29;20025;-64
2023/09/03 02:45:30;;;;;;;9.23;5.70;;;;;;;;;;4904645;29;20092;-64
2023/09/03 02:47:56;;;;;;;9.15;6.35;;;;;;;;;;4905785;29;20477;-64
2023/09/03 02:50:22;;;;;;;8.85;6.43;;;;;;;;;;4887509;29;20474;-64
2023/09/03 02:52:49;;;;;;;10.50;6.85;;;;;;;;;;4887330;29;20032;-64
2023/09/03 02:55:15;;;;;;;10.88;6.55;;;;;;;;;;4903313;29;20029;-64
2023/09/03 02:57:41;;;;;;;10.45;6.45;;;;;;;;;;4904113;29;20032;-64
2023/09/03 03:00:08;;;;;;;8.98;6.07;;;;;;;;;;4904211;29;20378;-64
2023/09/03 03:02:34;;;;;;;10.52;6.80;;;;;;;;;;4887223;29;20524;-64
2023/09/03 03:05:00;;;;;;;8.70;6.03;;;;;;;;;;4904131;29;20032;-64
2023/09/03 03:07:26;;;;;;;8.70;5.63;;;;;;;;;;4903943;29;20036;-64
2023/09/03 03:09:53;;;;;;;10.02;6.32;;;;;;;;;;4903790;29;20031;-64
2023/09/03 03:12:19;;;;;;;7.88;5.65;;;;;;;;;;4904005;29;20458;-64
2023/09/03 03:14:45;;;;;;;9.55;5.97;;;;;;;;;;4904241;29;20067;-65
2023/09/03 03:17:11;;;;;;;8.73;6.38;;;;;;;;;;4903785;29;20051;-64
2023/09/03 03:19:37;;;;;;;9.27;5.43;;;;;;;;;;4903851;29;20032;-64
2023/09/03 03:22:03;;;;;;;10.77;6.50;;;;;;;;;;4886812;29;20056;-64
2023/09/03 03:24:29;;;;;;;10.30;6.28;;;;;;;;;;4907136;29;20025;-64
2023/09/03 03:26:55;;;;;;;11.52;6.80;;;;;;;;;;4903337;29;20478;-64
2023/09/03 03:29:21;;;;;;;13.27;8.00;;;;;;;;;;4903686;29;20028;-64
2023/09/03 03:31:47;;;;;;;12.20;7.47;;;;;;;;;;4903444;29;20053;-64
2023/09/03 03:34:13;;;;;;;11.32;6.40;;;;;;;;;;4903606;29;20035;-64
2023/09/03 03:36:39;;;;;;;10.65;7.15;;;;;;;;;;4903582;29;20116;-64
2023/09/03 03:39:05;;;;;;;13.75;7.88;;;;;;;;;;4886288;29;20072;-64
2023/09/03 03:41:32;;;;;;;12.02;7.63;;;;;;;;;;4904824;29;20029;-64
2023/09/03 03:43:59;;;;;;;11.70;7.65;;;;;;;;;;4903536;29;20113;-64
2023/09/03 03:46:25;;;;;;;13.93;7.20;;;;;;;;;;4903242;29;20043;-64
2023/09/03 03:48:51;;;;;;;13.60;6.70;;;;;;;;;;4904724;29;20064;-64
2023/09/03 03:51:17;;;;;;;9.43;6.55;;;;;;;;;;4903143;29;20032;-64
2023/09/03 03:53:43;;;;;;;15.30;7.10;;;;;;;;;;4903061;29;20033;-64
2023/09/03 03:56:10;;;;;;;16.67;8.75;;;;;;;;;;4902815;29;20562;-64
2023/09/03 03:58:37;;;;;;;15.18;7.13;;;;;;;;;;4903132;29;20037;-64
2023/09/03 04:01:13;;;;;;;12.38;7.00;;;;;;;;;;4886042;29;20032;-64
2023/09/03 04:03:39;;;;;;;21.45;8.90;;;;;;;;;;4886197;29;20035;-64
2023/09/03 04:06:06;;;;;;;9.15;6.38;;;;;;;;;;4902835;29;20017;-64
2023/09/03 04:08:33;;;;;;;12.23;7.18;;;;;;;;;;4902837;29;20025;-64
2023/09/03 04:11:02;;;;;;;12.38;7.07;;;;;;;;;;4885680;29;20155;-64
2023/09/03 04:13:28;;;;;;;11.75;7.38;;;;;;;;;;4902923;29;20873;-64
2023/09/03 04:15:54;;;;;;;11.18;6.65;;;;;;;;;;4902899;29;20029;-64
2023/09/03 04:18:20;;;;;;;9.10;6.60;;;;;;;;;;4902789;29;20092;-64
2023/09/03 04:20:46;;;;;;;12.00;6.45;;;;;;;;;;4902598;29;20482;-64
2023/09/03 04:23:12;;;;;;;11.75;7.40;;;;;;;;;;4902721;29;20051;-64
2023/09/03 04:25:38;;;;;;;9.20;6.43;;;;;;;;;;4902442;29;20021;-64
2023/09/03 04:28:05;;;;;;;11.13;5.93;;;;;;;;;;4902868;29;20032;-64
2023/09/03 04:30:31;;;;;;;11.93;7.55;;;;;;;;;;4902534;29;20123;-64
2023/09/03 04:32:57;;;;;;;7.97;6.03;;;;;;;;;;4902633;29;20063;-64
2023/09/03 04:35:24;;;;;;;11.77;7.18;;;;;;;;;;4902711;29;20493;-64
2023/09/03 04:37:50;;;;;;;18.58;7.85;;;;;;;;;;4902335;29;20047;-64
2023/09/03 04:40:16;;;;;;;9.43;5.93;;;;;;;;;;4903432;29;20029;-64
2023/09/03 04:42:42;;;;;;;6.47;4.95;;;;;;;;;;4902508;29;20020;-64
2023/09/03 04:45:09;;;;;;;10.57;5.85;;;;;;;;;;4902378;29;20402;-64
2023/09/03 04:47:35;;;;;;;7.50;6.18;;;;;;;;;;4903132;29;20435;-64
2023/09/03 04:50:01;;;;;;;10.57;6.78;;;;;;;;;;4902748;29;20169;-64
2023/09/03 04:52:27;;;;;;;7.60;5.85;;;;;;;;;;4902421;29;20035;-64
2023/09/03 04:54:53;;;;;;;9.23;6.65;;;;;;;;;;4901939;29;20033;-64
2023/09/03 04:57:20;;;;;;;10.10;5.80;;;;;;;;;;4902337;29;20104;-64
2023/09/03 04:59:46;;;;;;;9.07;5.53;;;;;;;;;;4885324;29;20025;-64
2023/09/03 05:02:12;;;;;;;8.95;6.10;;;;;;;;;;4902229;29;20570;-64
2023/09/03 05:04:38;;;;;;;10.52;5.35;;;;;;;;;;4902243;29;20029;-64
2023/09/03 05:07:05;;;;;;;14.80;7.90;;;;;;;;;;4885241;29;20520;-64
2023/09/03 05:09:31;;;;;;;10.52;6.40;;;;;;;;;;4885075;29;20486;-64
2023/09/03 05:11:57;;;;;;;14.68;7.85;;;;;;;;;;4901907;29;20060;-64
2023/09/03 05:14:23;;;;;;;9.13;7.00;;;;;;;;;;4902066;29;20033;-64
2023/09/03 05:16:49;;;;;;;7.25;5.65;;;;;;;;;;4903208;29;20405;-64
2023/09/03 05:19:15;;;;;;;8.77;6.68;;;;;;;;;;4908426;29;20513;-64
2023/09/03 05:21:41;;;;;;;9.95;6.07;;;;;;;;;;4908323;29;20038;-64
2023/09/03 05:24:08;;;;;;;11.27;6.78;;;;;;;;;;4907798;29;20024;-64
2023/09/03 05:26:34;;;;;;;10.73;7.18;;;;;;;;;;4908036;29;20032;-64
2023/09/03 05:29:00;;;;;;;7.57;6.00;;;;;;;;;;4908399;29;20028;-64
2023/09/03 05:31:27;;;;;;;10.48;6.32;;;;;;;;;;4891233;29;20088;-63
2023/09/03 05:33:53;;;;;;;10.35;6.32;;;;;;;;;;4908176;29;20024;-64
2023/09/03 05:36:19;;;;;;;7.95;4.97;;;;;;;;;;4891066;29;20043;-64
2023/09/03 05:38:45;;;;;;;12.07;7.28;;;;;;;;;;4907985;29;20020;-64
2023/09/03 05:41:11;;;;;;;10.43;7.40;;;;;;;;;;4909516;29;20029;-64
2023/09/03 05:43:40;;;;;;;9.18;6.40;;;;;;;;;;4890966;29;20040;-64
2023/09/03 05:46:06;;;;;;;12.68;8.43;;;;;;;;;;4907964;29;20029;-64
2023/09/03 05:48:32;;;;;;;11.02;6.93;;;;;;;;;;4909185;29;20025;-64
2023/09/03 05:51:03;;;;;;;9.15;6.78;;;;;;;;;;4891024;29;20044;-64
2023/09/03 05:53:29;;;;;;;9.35;7.28;;;;;;;;;;4907861;29;20033;-64
2023/09/03 05:56:03;;;;;;;10.80;7.30;;;;;;;;;;4907859;29;20502;-63
2023/09/03 05:58:29;;;;;;;11.18;7.10;;;;;;;;;;4893997;29;20028;-64
2023/09/03 06:00:55;;;;;;;9.77;7.13;;;;;;;;;;4922499;29;20522;-64
2023/09/03 06:03:21;;;;;;;8.02;5.95;;;;;;;;;;4907888;29;20543;-64
2023/09/03 06:05:47;;;;;;;8.25;6.00;;;;;;;;;;4907968;29;20029;-64
2023/09/03 06:08:13;;;;;;;10.07;7.10;;;;;;;;;;4890783;29;20484;-64
2023/09/03 06:10:39;;;;;;;10.05;6.47;;;;;;;;;;4907497;29;20437;-65
2023/09/03 06:13:05;;;;;;;8.88;6.68;;;;;;;;;;4907867;29;20032;-64
2023/09/03 06:15:31;;;;;;;9.63;6.63;;;;;;;;;;4914614;29;20161;-64
2023/09/03 06:17:57;;;;;;;9.65;7.18;;;;;;;;;;4914236;29;20024;-64
2023/09/03 06:20:23;;;;;;;7.78;6.15;;;;;;;;;;4922696;29;20032;-64
2023/09/03 06:22:49;;;;;;;6.13;4.95;;;;;;;;;;4899666;29;20027;-64
2023/09/03 06:25:15;;;;;;;8.52;5.82;;;;;;;;;;4917116;29;20024;-64
2023/09/03 06:27:41;;;;;;;7.20;5.53;;;;;;;;;;4917714;29;20024;-64
2023/09/03 06:30:07;;;;;;;9.55;6.78;;;;;;;;;;4922429;29;20573;-64
2023/09/03 06:32:34;;;;;;;9.82;5.65;;;;;;;;;;4906741;29;20047;-64
2023/09/03 06:35:00;;;;;;;12.73;6.50;;;;;;;;;;4915298;29;20037;-64
2023/09/03 06:37:26;;;;;;;8.30;5.70;;;;;;;;;;4912734;29;20048;-64
2023/09/03 06:39:52;;;;;;;7.47;5.90;;;;;;;;;;4906714;29;20107;-64
2023/09/03 06:42:18;;;;;;;10.10;6.72;;;;;;;;;;4904506;29;20394;-63
2023/09/03 06:44:44;;;;;;;11.05;7.15;;;;;;;;;;4904401;29;20483;-63
2023/09/03 06:47:10;;;;;;;10.48;7.07;;;;;;;;;;4906213;29;20052;-63
2023/09/03 06:49:36;;;;;;;7.18;5.72;;;;;;;;;;4906519;29;20478;-64
2023/09/03 06:52:02;;;;;;;8.05;5.53;;;;;;;;;;4904399;29;20100;-63
2023/09/03 06:54:28;;;;;;;7.47;6.15;;;;;;;;;;4906265;29;20032;-64
2023/09/03 06:56:54;;;;;;;8.25;6.85;;;;;;;;;;4889407;29;20035;-64
2023/09/03 06:59:23;;;;;;;6.70;5.28;;;;;;;;;;4904593;29;20156;-64
2023/09/03 07:01:50;;;;;;;11.07;6.97;;;;;;;;;;4890134;29;20040;-64
2023/09/03 07:04:16;;;;;;;7.35;5.90;;;;;;;;;;4905694;29;20028;-63
2023/09/03 07:06:42;;;;;;;7.07;5.82;;;;;;;;;;4890087;29;20184;-63
2023/09/03 07:09:10;;;;;;;9.52;5.45;;;;;;;;;;4884185;29;20032;-63
2023/09/03 07:11:37;;;;;;;8.20;5.78;;;;;;;;;;4911308;29;20040;-64
2023/09/03 07:14:03;;;;;;;8.48;6.30;;;;;;;;;;4906334;29;20065;-64
2023/09/03 07:16:30;;;;;;;8.05;5.80;;;;;;;;;;4905690;29;20024;-63
2023/09/03 07:18:56;;;;;;;9.60;5.95;;;;;;;;;;4922499;29;20540;-64
2023/09/03 07:21:22;;;;;;;6.85;4.95;;;;;;;;;;4922177;29;20063;-63
2023/09/03 07:23:48;;;;;;;8.13;6.43;;;;;;;;;;4924008;29;20036;-64
2023/09/03 07:26:14;;;;;;;7.25;5.93;;;;;;;;;;4929364;29;20072;-64
2023/09/03 07:28:40;;;;;;;7.95;6.07;;;;;;;;;;4936618;29;20031;-64
2023/09/03 07:31:06;;;;;;;7.63;6.07;;;;;;;;;;4922224;29;20039;-63
2023/09/03 07:33:33;;;;;;;8.13;6.50;;;;;;;;;;4931683;29;20040;-63
2023/09/03 07:35:59;;;;;;;8.68;6.15;;;;;;;;;;4922633;29;20056;-63
2023/09/03 07:38:27;;;;;;;7.72;6.45;;;;;;;;;;4922082;29;20044;-63
2023/09/03 07:40:53;;;;;;;8.18;6.30;;;;;;;;;;4923432;29;20024;-63
2023/09/03 07:43:19;;;;;;;8.38;5.97;;;;;;;;;;4930883;29;20079;-63
2023/09/03 07:45:48;;;;;;;7.20;6.00;;;;;;;;;;4930877;29;20023;-63
2023/09/03 07:48:14;;;;;;;8.13;6.30;;;;;;;;;;4913906;29;20028;-63
2023/09/03 07:50:40;;;;;;;7.28;5.97;;;;;;;;;;4927469;29;20019;-63
2023/09/03 07:53:06;;;;;;;7.28;6.20;;;;;;;;;;4931258;29;20039;-63
2023/09/03 07:55:32;;;;;;;8.45;6.28;;;;;;;;;;4930843;29;20484;-64
2023/09/03 07:57:58;;;;;;;6.95;5.32;;;;;;;;;;4931535;29;20039;-63
2023/09/03 08:00:24;;;;;;;7.38;5.88;;;;;;;;;;4929973;29;20031;-64
2023/09/03 08:02:50;;;;;;;9.02;6.20;;;;;;;;;;4929743;29;20023;-64
2023/09/03 08:05:17;;;;;;;6.13;5.32;;;;;;;;;;4931544;29;20048;-63
2023/09/03 08:07:43;;;;;;;6.97;5.68;;;;;;;;;;4930224;29;20058;-63
2023/09/03 08:10:09;;;;;;;6.53;5.35;;;;;;;;;;4940595;29;20034;-63
2023/09/03 08:12:35;;;;;;;7.78;5.82;;;;;;;;;;4940714;29;20082;-63
2023/09/03 08:15:01;;;;;;;7.00;5.57;;;;;;;;;;4940675;29;20028;-63
2023/09/03 08:17:30;;;;;;;7.25;5.70;;;;;;;;;;4940479;29;20104;-63
2023/09/03 08:19:56;;;;;;;7.32;5.43;;;;;;;;;;4923547;29;20051;-63
2023/09/03 08:22:22;;;;;;;6.55;5.20;;;;;;;;;;4940283;29;20028;-63
2023/09/03 08:24:48;;;;;;;5.75;4.68;;;;;;;;;;4932855;29;20434;-63
2023/09/03 08:27:14;;;;;;;6.03;5.20;;;;;;;;;;4923774;29;20028;-64
2023/09/03 08:29:40;;;;;;;6.03;5.03;;;;;;;;;;4931425;29;20058;-63
2023/09/03 08:32:06;;;;;;;5.78;4.97;;;;;;;;;;4910391;29;20028;-63
2023/09/03 08:34:32;;;;;;;5.60;4.70;;;;;;;;;;4921220;29;20553;-63
2023/09/03 08:36:58;;;;;;;5.13;4.53;;;;;;;;;;4921246;29;20032;-63
2023/09/03 08:39:24;;;;;;;6.43;4.60;;;;;;;;;;4921498;29;20489;-63
2023/09/03 08:41:50;;;;;;;5.03;4.20;;;;;;;;;;4922033;29;20032;-63
2023/09/03 08:44:43;;;;;;;4.72;4.10;;;;;;;;;;4904253;29;20027;-63
2023/09/03 08:47:11;;;;;;;5.43;3.92;;;;;;;;;;4895383;29;20036;-63
2023/09/03 08:49:38;;;;;;;4.40;3.53;;;;;;;;;;4926242;29;20028;-63
2023/09/03 08:52:05;;;;;;;4.28;3.60;;;;;;;;;;4931923;29;20040;-63
2023/09/03 08:54:31;;;;;;;3.17;2.83;;;;;;;;;;4931519;29;20116;-63
2023/09/03 08:56:58;;;;;;;3.25;2.58;;;;;;;;;;4931490;29;20060;-63
2023/09/03 08:59:24;;;;;;;4.22;3.00;;;;;;;;;;4931189;29;20438;-63
2023/09/03 09:01:53;;;;;;;3.40;2.35;;;;;;;;;;4929732;29;20611;-62
2023/09/03 09:04:19;;;;;;;3.38;2.58;;;;;;;;;;4927657;29;20155;-63
2023/09/03 09:06:46;;;;;;;2.40;2.20;;;;;;;;;;4930302;29;20023;-63
2023/09/03 09:09:14;;;;;;;3.00;2.20;;;;;;;;;;4911117;29;20448;-63
2023/09/03 09:11:41;;;;;;;2.10;1.80;;;;;;;;;;4928499;29;20071;-63
2023/09/03 09:14:17;;;;;;;2.42;1.95;;;;;;;;;;4928160;29;20405;-63
2023/09/03 09:16:43;;;;;;;2.03;1.77;;;;;;;;;;4931016;29;20438;-64
2023/09/03 09:19:09;;;;;;;3.28;1.80;;;;;;;;;;4913213;29;20027;-64
2023/09/03 09:21:35;;;;;;;1.98;1.63;;;;;;;;;;4912583;29;20028;-63
2023/09/03 09:24:02;;;;;;;2.47;1.92;;;;;;;;;;4910517;29;20505;-63
2023/09/03 09:26:34;;;;;;;2.55;1.80;;;;;;;;;;4920603;29;20458;-63
2023/09/03 09:29:01;;;;;;;2.13;1.77;;;;;;;;;;4920422;29;20028;-64
2023/09/03 09:31:30;;;;;;;2.40;1.88;;;;;;;;;;4920483;29;20288;-63
2023/09/03 09:33:56;;;;;;;2.40;1.83;;;;;;;;;;4920823;29;20040;-64
2023/09/03 09:36:22;;;;;;;1.75;1.38;;;;;;;;;;4920544;29;20481;-63
2023/09/03 09:38:49;;;;;;;2.58;2.10;;;;;;;;;;4924213;29;20054;-63
2023/09/03 09:41:22;;;;;;;2.00;1.70;;;;;;;;;;4929444;29;20021;-63
2023/09/03 09:43:47;;;;;;;;;;;;;;;;;;4925957;29;20617;-63
2023/09/03 09:46:30;;;;;;;2.03;1.60;;;;;;;;;;4927430;29;19959;-63
2023/09/03 09:48:57;;;;;;;2.13;1.58;;;;;;;;;;4911164;29;20023;-63
2023/09/03 09:51:23;;;;;;;1.80;1.50;;;;;;;;;;4931417;29;20063;-63
2023/09/03 09:53:56;;;;;;;1.58;1.48;;;;;;;;;;4911910;29;20039;-63
2023/09/03 09:56:25;;;;;;;1.95;1.70;;;;;;;;;;4929196;29;20028;-63
2023/09/03 09:58:51;;;;;;;1.80;1.30;;;;;;;;;;4927874;29;20449;-64
2023/09/03 10:01:18;;;;;;;3.15;1.67;;;;;;;;;;4929950;29;20082;-63
2023/09/03 10:03:44;;;;;;;1.77;1.67;;;;;;;;;;4928257;29;20521;-63
2023/09/03 10:06:10;;;;;;;3.33;1.73;;;;;;;;;;4933677;29;20028;-63
2023/09/03 10:08:36;;;;;;;2.55;1.50;;;;;;;;;;4914752;29;20034;-63
2023/09/03 10:11:02;;;;;;;2.03;1.80;;;;;;;;;;4931990;29;20075;-63
2023/09/03 10:13:30;;;;;;;2.55;1.80;;;;;;;;;;4931659;29;20035;-63
2023/09/03 10:15:56;;;;;;;2.30;1.60;;;;;;;;;;4934129;29;20085;-63
2023/09/03 10:18:22;;;;;;;3.00;1.48;;;;;;;;;;4934057;29;20028;-63
2023/09/03 10:20:49;;;;;;;2.13;1.73;;;;;;;;;;4933033;29;20410;-63
2023/09/03 10:23:17;;;;;;;2.13;1.50;;;;;;;;;;4915217;29;20071;-63
2023/09/03 10:25:44;;;;;;;2.28;1.65;;;;;;;;;;4916432;29;20392;-63
2023/09/03 10:28:11;;;;;;;2.15;1.50;;;;;;;;;;4931252;29;20027;-63
2023/09/03 10:30:40;;;;;;;2.10;1.58;;;;;;;;;;4923379;29;20111;-63
2023/09/03 10:33:10;;;;;;;2.95;1.67;;;;;;;;;;4906590;29;20032;-64
2023/09/03 10:35:36;;;;;;;1.70;1.55;;;;;;;;;;4929452;29;20032;-64
2023/09/03 10:38:02;;;;;;;2.67;1.65;;;;;;;;;;4930684;29;20060;-64
2023/09/03 10:40:29;;;;;;;1.77;1.50;;;;;;;;;;4933416;29;20085;-63
2023/09/03 10:43:18;;;;;;;1.60;1.50;;;;;;;;;;4914969;29;20035;-64
2023/09/03 10:46:04;;;;;;;2.60;1.58;;;;;;;;;;4929237;29;20024;-64
2023/09/03 10:48:30;;;;;;;1.85;1.60;;;;;;;;;;4930378;29;20030;-63
2023/09/03 10:50:56;;;;;;;2.08;1.50;;;;;;;;;;4930391;29;20367;-63
2023/09/03 10:53:39;;;;;;;3.05;1.77;;;;;;;;;;4932533;29;20028;-64
2023/09/03 10:56:09;;;;;;;3.10;1.58;;;;;;;;;;4929819;29;20035;-64
2023/09/03 10:58:35;;;;;;;2.92;1.70;;;;;;;;;;4914500;29;20028;-64
2023/09/03 11:01:17;;;;;;;2.42;1.50;;;;;;;;;;4926613;29;20043;-64
2023/09/03 11:03:46;;;;;;;2.30;1.65;;;;;;;;;;4928642;29;20516;-64
2023/09/03 11:06:20;;;;;;;2.70;2.10;;;;;;;;;;4931321;29;20500;-63
2023/09/03 11:08:46;;;;;;;2.95;1.73;;;;;;;;;;4929748;29;20028;-63
2023/09/03 11:11:19;;;;;;;1.70;1.50;;;;;;;;;;4929918;29;20060;-64
2023/09/03 11:13:52;;;;;;;2.47;1.70;;;;;;;;;;4927133;29;20087;-63
2023/09/03 11:16:19;;;;;;;2.63;1.80;;;;;;;;;;4931336;29;20163;-63
2023/09/03 11:18:49;;;;;;;1.98;1.50;;;;;;;;;;4914350;29;20024;-64
2023/09/03 11:21:15;;;;;;;3.83;1.80;;;;;;;;;;4931171;29;20031;-64
2023/09/03 11:23:57;;;;;;;3.42;1.65;;;;;;;;;;4925658;29;20481;-64
2023/09/03 11:26:23;;;;;;;2.85;1.60;;;;;;;;;;4934117;29;20031;-64
2023/09/03 11:28:49;;;;;;;1.75;1.50;;;;;;;;;;4931434;29;20083;-63
2023/09/03 11:31:15;;;;;;;2.10;1.65;;;;;;;;;;4930880;29;20035;-63
2023/09/03 11:33:41;;;;;;;2.45;1.60;;;;;;;;;;4928664;29;20039;-63
2023/09/03 11:36:07;;;;;;;2.38;1.95;;;;;;;;;;4929771;29;20822;-64
2023/09/03 11:38:34;;;;;;;1.92;1.63;;;;;;;;;;4928959;29;20032;-64
2023/09/03 11:41:01;;;;;;;2.92;1.55;;;;;;;;;;4931025;29;20039;-63
2023/09/03 11:43:28;;;;;;;2.20;1.42;;;;;;;;;;4931765;29;20035;-63
2023/09/03 11:45:54;;;;;;;3.25;1.77;;;;;;;;;;4913086;29;20407;-64
2023/09/03 11:48:24;;;;;;;3.10;1.75;;;;;;;;;;4931312;29;20107;-64
2023/09/03 11:50:51;;;;;;;2.85;1.63;;;;;;;;;;4929345;29;20063;-64
2023/09/03 11:53:17;;;;;;;2.25;1.60;;;;;;;;;;4929249;29;20017;-63
2023/09/03 11:55:45;;;;;;;2.90;1.73;;;;;;;;;;4931099;29;20032;-63
2023/09/03 11:58:12;;;;;;;3.10;1.80;;;;;;;;;;4929806;29;20023;-63
2023/09/03 12:00:40;;;;;;;2.22;1.58;;;;;;;;;;4929314;29;20030;-63
2023/09/03 12:03:06;;;;;;;2.00;1.70;;;;;;;;;;4930256;29;20094;-63
2023/09/03 12:05:33;;;;;;;2.50;1.83;;;;;;;;;;4929600;29;20036;-63
2023/09/03 12:08:05;;;;;;;2.00;1.70;;;;;;;;;;4930097;29;20031;-63
2023/09/03 12:10:31;;;;;;;2.95;1.73;;;;;;;;;;4927999;29;20083;-63
2023/09/03 12:13:01;;;;;;;2.90;1.80;;;;;;;;;;4915665;29;20056;-63
2023/09/03 12:15:29;;;;;;;2.67;1.55;;;;;;;;;;4931908;29;20034;-64
2023/09/03 12:18:06;;;;;;;2.03;1.75;;;;;;;;;;4913819;29;20511;-63
2023/09/03 12:20:36;;;;;;;1.58;1.27;;;;;;;;;;4928579;29;20051;-63
2023/09/03 12:23:06;;;;;;;1.95;1.60;;;;;;;;;;4909335;29;20091;-63
2023/09/03 12:25:33;;;;;;;2.20;1.50;;;;;;;;;;4930504;29;20032;-63
2023/09/03 12:27:59;;;;;;;1.67;1.40;;;;;;;;;;4920414;29;20449;-63
2023/09/03 12:30:25;;;;;;;3.38;1.50;;;;;;;;;;4904386;29;20071;-64
2023/09/03 12:32:54;;;;;;;1.55;1.45;;;;;;;;;;4924006;29;20032;-64
2023/09/03 12:35:20;;;;;;;2.38;1.50;;;;;;;;;;4932687;29;20040;-64
2023/09/03 12:37:46;;;;;;;2.00;1.70;;;;;;;;;;4921659;29;20032;-64
2023/09/03 12:40:13;;;;;;;2.47;1.50;;;;;;;;;;4930180;29;20028;-64
2023/09/03 12:42:39;;;;;;;2.35;1.67;;;;;;;;;;4928393;29;20075;-64
2023/09/03 12:45:06;;;;;;;2.00;1.60;;;;;;;;;;4928202;29;20585;-64
2023/09/03 12:47:32;;;;;;;2.00;1.48;;;;;;;;;;4930311;29;20018;-64
2023/09/03 12:49:58;;;;;;;2.55;1.75;;;;;;;;;;4929733;29;20028;-64
2023/09/03 12:52:24;;;;;;;2.45;1.30;;;;;;;;;;4928474;29;20420;-64
2023/09/03 12:54:50;;;;;;;2.17;1.30;;;;;;;;;;4928260;29;20474;-64
2023/09/03 12:57:16;;;;;;;1.70;1.40;;;;;;;;;;4930396;29;20056;-64
2023/09/03 12:59:42;;;;;;;2.10;1.50;;;;;;;;;;4928777;29;20027;-64
2023/09/03 13:02:08;;;;;;;1.77;1.40;;;;;;;;;;4928574;29;20032;-64
2023/09/03 13:04:34;;;;;;;2.28;1.50;;;;;;;;;;4910760;29;20020;-64
2023/09/03 13:07:00;;;;;;;1.95;1.30;;;;;;;;;;4929689;29;20028;-64
2023/09/03 13:09:26;;;;;;;3.00;1.60;;;;;;;;;;4927911;29;20015;-64
2023/09/03 13:11:52;;;;;;;1.92;1.20;;;;;;;;;;4928625;29;20910;-64
2023/09/03 13:14:18;;;;;;;1.60;1.45;;;;;;;;;;4926027;29;20019;-64
2023/09/03 13:16:44;;;;;;;2.33;1.42;;;;;;;;;;4930035;29;20445;-64
2023/09/03 13:19:10;;;;;;;2.65;1.50;;;;;;;;;;4921001;29;20036;-64
2023/09/03 13:21:37;;;;;;;1.77;1.50;;;;;;;;;;4903575;29;20088;-64
2023/09/03 13:24:03;;;;;;;2.17;1.60;;;;;;;;;;4920878;29;20032;-64
2023/09/03 13:26:30;;;;;;;1.52;1.17;;;;;;;;;;4909360;29;20104;-64
2023/09/03 13:28:56;;;;;;;2.30;1.60;;;;;;;;;;4928699;29;20486;-64
2023/09/03 13:31:23;;;;;;;2.17;1.60;;;;;;;;;;4930318;29;20043;-64
2023/09/03 13:33:49;;;;;;;1.60;1.50;;;;;;;;;;4929017;29;20072;-64
2023/09/03 13:36:17;;;;;;;1.77;1.30;;;;;;;;;;4928679;29;20052;-64
2023/09/03 13:38:44;;;;;;;2.60;1.58;;;;;;;;;;4912310;29;20043;-64
2023/09/03 13:41:10;;;;;;;1.85;1.33;;;;;;;;;;4938852;29;20035;-64
2023/09/03 13:43:36;;;;;;;2.70;1.50;;;;;;;;;;4911863;29;20016;-64
2023/09/03 13:46:02;;;;;;;1.88;1.40;;;;;;;;;;4924350;29;20125;-64
2023/09/03 13:48:28;;;;;;;1.90;1.50;;;;;;;;;;4933004;29;20020;-64
2023/09/03 13:50:55;;;;;;;3.97;1.88;;;;;;;;;;4933122;29;20032;-64
2023/09/03 13:53:21;;;;;;;1.90;1.50;;;;;;;;;;4913031;29;20390;-64
2023/09/03 13:55:47;;;;;;;1.88;1.42;;;;;;;;;;4924219;29;20115;-64
2023/09/03 13:58:13;;;;;;;1.60;1.40;;;;;;;;;;4924192;29;20844;-64
2023/09/03 14:00:39;;;;;;;2.85;1.50;;;;;;;;;;4924115;29;20115;-64
2023/09/03 14:03:06;;;;;;;2.20;1.45;;;;;;;;;;4924167;29;20024;-64
2023/09/03 14:05:32;;;;;;;1.75;1.52;;;;;;;;;;4924046;29;20031;-64
2023/09/03 14:07:58;;;;;;;2.55;1.60;;;;;;;;;;4942601;29;20102;-64
2023/09/03 14:10:24;;;;;;;2.85;1.55;;;;;;;;;;4929443;29;20028;-64
2023/09/03 14:12:50;;;;;;;2.22;1.50;;;;;;;;;;4906648;29;20044;-64
2023/09/03 14:15:16;;;;;;;2.22;1.40;;;;;;;;;;4886785;29;20164;-64
2023/09/03 14:17:42;;;;;;;1.70;1.40;;;;;;;;;;4904918;29;20136;-65
2023/09/03 14:20:09;;;;;;;2.38;1.60;;;;;;;;;;4904967;29;20060;-64
2023/09/03 14:22:35;;;;;;;1.95;1.30;;;;;;;;;;4904639;29;20115;-63
2023/09/03 14:25:01;;;;;;;1.88;1.52;;;;;;;;;;4904707;29;20081;-63
2023/09/03 14:27:27;;;;;;;1.90;1.38;;;;;;;;;;4907720;29;20485;-64
2023/09/03 14:29:53;;;;;;;1.85;1.48;;;;;;;;;;4909988;29;20032;-64
2023/09/03 14:32:19;;;;;;;1.88;1.45;;;;;;;;;;4904861;29;20032;-65
2023/09/03 14:34:45;;;;;;;2.05;1.30;;;;;;;;;;4904660;29;20064;-64
2023/09/03 14:37:11;;;;;;;1.88;1.27;;;;;;;;;;4904763;29;20080;-65
2023/09/03 14:39:37;;;;;;;2.00;1.60;;;;;;;;;;4881430;29;20123;-65